createdAt,value
2022-08-26T00:01:56.685Z,93098.06
2022-08-26T00:04:26.154Z,93093.25
2022-08-26T00:06:56.649Z,93099.06
2022-08-26T00:09:25.460Z,93095.97
2022-08-26T00:11:54.457Z,93097.47
2022-08-26T00:14:28.284Z,93090.00
2022-08-26T00:16:57.934Z,93095.22
2022-08-26T00:19:25.603Z,93091.38
2022-08-26T00:21:52.938Z,93085.91
2022-08-26T00:24:21.902Z,93084.84
2022-08-26T00:26:50.055Z,93084.31
2022-08-26T00:29:19.748Z,93088.13
2022-08-26T00:31:49.329Z,93083.41
2022-08-26T00:34:19.434Z,93084.06
2022-08-26T00:36:49.361Z,93082.81
2022-08-26T00:39:20.989Z,93085.19
2022-08-26T00:41:48.825Z,93083.47
2022-08-26T00:44:17.204Z,93085.00
2022-08-26T00:47:01.152Z,93083.88
2022-08-26T00:49:38.117Z,93083.78
2022-08-26T00:52:09.688Z,93081.69
2022-08-26T00:54:47.031Z,93073.19
2022-08-26T00:57:17.880Z,93075.25
2022-08-26T00:59:47.836Z,93072.75
2022-08-26T01:02:21.246Z,93076.91
2022-08-26T01:04:55.733Z,93079.56
2022-08-26T01:07:30.116Z,93077.59
2022-08-26T01:10:01.306Z,93076.03
2022-08-26T01:12:34.001Z,93080.72
2022-08-26T01:15:02.642Z,93079.50
2022-08-26T01:17:30.587Z,93077.09
2022-08-26T01:20:12.767Z,93079.19
2022-08-26T01:22:53.481Z,93075.44
2022-08-26T01:25:23.147Z,93074.81
2022-08-26T01:27:52.673Z,93075.81
2022-08-26T01:30:21.257Z,93076.44
2022-08-26T01:32:50.642Z,93076.41
2022-08-26T01:35:19.856Z,93074.03
2022-08-26T01:37:48.961Z,93074.25
2022-08-26T01:40:19.107Z,93076.41
2022-08-26T01:42:49.264Z,93079.09
2022-08-26T01:45:25.450Z,93079.97
2022-08-26T01:47:57.367Z,93081.47
2022-08-26T01:50:33.201Z,93076.38
2022-08-26T01:53:06.284Z,93080.13
2022-08-26T01:55:35.366Z,93079.06
2022-08-26T01:58:08.326Z,93074.28
2022-08-26T02:00:36.546Z,93070.31
2022-08-26T02:03:17.210Z,93070.59
2022-08-26T02:05:51.464Z,93076.12
2022-08-26T02:08:24.801Z,93076.88
2022-08-26T02:10:54.902Z,93083.41
2022-08-26T02:13:23.412Z,93074.28
2022-08-26T02:15:53.417Z,93076.28
2022-08-26T02:18:22.852Z,93066.13
2022-08-26T02:20:53.266Z,93068.03
2022-08-26T02:23:20.923Z,93070.78
2022-08-26T02:26:09.181Z,93067.25
2022-08-26T02:28:46.596Z,93060.28
2022-08-26T02:31:14.125Z,93061.62
2022-08-26T02:33:43.305Z,93063.28
2022-08-26T02:36:10.690Z,93064.00
2022-08-26T02:38:40.708Z,93062.59
2022-08-26T02:41:11.426Z,93068.34
2022-08-26T02:43:38.737Z,93065.69
2022-08-26T02:46:06.716Z,93065.94
2022-08-26T02:48:34.419Z,93064.63
2022-08-26T02:51:03.303Z,93064.53
2022-08-26T02:53:31.754Z,93061.47
2022-08-26T02:55:59.762Z,93065.00
2022-08-26T02:58:27.416Z,93071.84
2022-08-26T03:00:54.878Z,93072.31
2022-08-26T03:03:23.717Z,93073.44
2022-08-26T03:05:52.370Z,93077.50
2022-08-26T03:08:20.116Z,93074.69
2022-08-26T03:10:48.165Z,93067.69
2022-08-26T03:13:17.123Z,93080.13
2022-08-26T03:15:45.910Z,93073.16
2022-08-26T03:18:16.343Z,93072.97
2022-08-26T03:20:43.974Z,93076.41
2022-08-26T03:23:13.258Z,93077.59
2022-08-26T03:25:41.190Z,93077.56
2022-08-26T03:28:09.631Z,93074.91
2022-08-26T03:30:44.924Z,93078.91
2022-08-26T03:33:14.146Z,93078.38
2022-08-26T03:35:43.660Z,93069.81
2022-08-26T03:38:11.565Z,93071.97
2022-08-26T03:40:40.202Z,93069.44
2022-08-26T03:43:10.081Z,93067.34
2022-08-26T03:45:38.505Z,93068.31
2022-08-26T03:48:06.271Z,93068.59
2022-08-26T03:50:35.675Z,93077.00
2022-08-26T03:53:04.269Z,93068.06
2022-08-26T03:55:35.122Z,93068.13
2022-08-26T03:58:02.792Z,93071.44
2022-08-26T04:00:31.242Z,93066.09
2022-08-26T04:02:59.110Z,93061.75
2022-08-26T04:05:27.092Z,93062.75
2022-08-26T04:07:56.148Z,93063.81
2022-08-26T04:10:28.422Z,93060.34
2022-08-26T04:12:58.796Z,93061.22
2022-08-26T04:15:27.295Z,93058.53
2022-08-26T04:17:56.094Z,93064.16
2022-08-26T04:20:26.183Z,93059.00
2022-08-26T04:22:54.035Z,93061.75
2022-08-26T04:25:22.663Z,93060.62
2022-08-26T04:27:51.871Z,93060.50
2022-08-26T04:30:20.289Z,93059.09
2022-08-26T04:32:49.522Z,93055.81
2022-08-26T04:35:17.016Z,93059.63
2022-08-26T04:37:44.938Z,93057.06
2022-08-26T04:40:12.648Z,93051.91
2022-08-26T04:42:40.140Z,93056.66
2022-08-26T04:45:10.015Z,93055.19
2022-08-26T04:47:38.304Z,93058.19
2022-08-26T04:50:07.485Z,93060.56
2022-08-26T04:52:36.879Z,93056.91
2022-08-26T04:55:06.021Z,93059.72
2022-08-26T04:57:34.156Z,93062.03
2022-08-26T05:00:02.594Z,93054.16
2022-08-26T05:02:31.732Z,93060.59
2022-08-26T05:05:00.242Z,93058.91
2022-08-26T05:07:27.957Z,93060.44
2022-08-26T05:09:55.561Z,93075.81
2022-08-26T05:12:23.506Z,93071.00
2022-08-26T05:14:51.502Z,93063.09
2022-08-26T05:17:19.336Z,93069.34
2022-08-26T05:19:47.433Z,93067.81
2022-08-26T05:22:15.355Z,93069.00
2022-08-26T05:24:46.597Z,93074.25
2022-08-26T05:27:15.469Z,93072.03
2022-08-26T05:29:42.991Z,93070.16
2022-08-26T05:32:12.181Z,93073.53
2022-08-26T05:34:40.019Z,93072.69
2022-08-26T05:37:10.452Z,93078.34
2022-08-26T05:39:41.405Z,93082.03
2022-08-26T05:42:11.182Z,93078.53
2022-08-26T05:44:54.148Z,93072.87
2022-08-26T05:47:25.744Z,93086.16
2022-08-26T05:49:53.481Z,93082.53
2022-08-26T05:52:20.836Z,93076.53
2022-08-26T05:54:48.711Z,93078.88
2022-08-26T05:57:16.422Z,93071.97
2022-08-26T05:59:46.013Z,93078.03
2022-08-26T06:02:13.741Z,93077.25
2022-08-26T06:04:41.660Z,93085.69
2022-08-26T06:07:11.730Z,93085.69
2022-08-26T06:09:39.821Z,93083.75
2022-08-26T06:12:07.781Z,93083.31
2022-08-26T06:14:36.200Z,93079.59
2022-08-26T06:17:04.425Z,93078.41
2022-08-26T06:19:32.875Z,93087.41
2022-08-26T06:22:23.477Z,93087.91
2022-08-26T06:25:10.123Z,93093.31
2022-08-26T06:27:37.648Z,93091.94
2022-08-26T06:30:05.799Z,93100.00
2022-08-26T06:32:33.725Z,93099.19
2022-08-26T06:35:01.588Z,93104.28
2022-08-26T06:37:29.328Z,93102.13
2022-08-26T06:39:56.812Z,93101.00
2022-08-26T06:42:25.106Z,93102.06
2022-08-26T06:44:52.923Z,93100.50
2022-08-26T06:47:20.715Z,93099.53
2022-08-26T06:49:48.566Z,93102.59
2022-08-26T06:52:23.055Z,93101.34
2022-08-26T06:54:51.953Z,93106.28
2022-08-26T06:57:20.774Z,93104.94
2022-08-26T06:59:48.718Z,93099.50
2022-08-26T07:02:18.893Z,93098.00
2022-08-26T07:04:47.837Z,93101.72
2022-08-26T07:07:15.568Z,93109.19
2022-08-26T07:09:42.929Z,93099.06
2022-08-26T07:12:10.766Z,93101.34
2022-08-26T07:14:38.483Z,93087.16
2022-08-26T07:17:10.061Z,93083.94
2022-08-26T07:19:39.986Z,93097.28
2022-08-26T07:22:08.776Z,93100.53
2022-08-26T07:24:40.461Z,93098.47
2022-08-26T07:27:13.796Z,93100.66
2022-08-26T07:29:43.628Z,93100.91
2022-08-26T07:32:14.209Z,93102.38
2022-08-26T07:34:43.228Z,93098.31
2022-08-26T07:37:12.101Z,93101.41
2022-08-26T07:39:41.813Z,93101.69
2022-08-26T07:42:14.108Z,93106.88
2022-08-26T07:44:43.540Z,93102.78
2022-08-26T07:47:25.096Z,93101.00
2022-08-26T07:49:55.869Z,93102.22
2022-08-26T07:52:27.027Z,93102.22
2022-08-26T07:54:56.632Z,93104.09
2022-08-26T07:57:25.221Z,93100.06
2022-08-26T07:59:55.046Z,93091.97
2022-08-26T08:02:23.796Z,93101.03
2022-08-26T08:04:52.486Z,93095.19
2022-08-26T08:07:20.350Z,93088.81
2022-08-26T08:09:49.823Z,93088.50
2022-08-26T08:12:19.362Z,93086.88
2022-08-26T08:14:47.256Z,93082.50
2022-08-26T08:17:16.576Z,93076.69
2022-08-26T08:19:44.537Z,93074.81
2022-08-26T08:22:17.436Z,93079.53
2022-08-26T08:24:49.722Z,93074.28
2022-08-26T08:27:23.869Z,93071.31
2022-08-26T08:29:54.969Z,93077.50
2022-08-26T08:32:24.115Z,93070.69
2022-08-26T08:34:51.872Z,93071.31
2022-08-26T08:37:19.262Z,93065.97
2022-08-26T08:39:46.705Z,93068.53
2022-08-26T08:42:31.605Z,93073.25
2022-08-26T08:45:04.192Z,93058.19
2022-08-26T08:47:47.540Z,93065.97
2022-08-26T08:50:14.864Z,93056.25
2022-08-26T08:52:45.288Z,93058.19
2022-08-26T08:55:18.024Z,93051.31
2022-08-26T08:58:07.957Z,93056.50
2022-08-26T09:00:51.937Z,93048.44
2022-08-26T09:03:55.117Z,93052.16
2022-08-26T09:06:22.556Z,93054.44
2022-08-26T09:08:51.528Z,93051.25
2022-08-26T09:11:22.555Z,93054.09
2022-08-26T09:13:56.740Z,93053.50
2022-08-26T09:16:41.974Z,93044.97
2022-08-26T09:19:33.873Z,93052.28
2022-08-26T09:22:05.795Z,93050.56
2022-08-26T09:24:42.124Z,93055.00
2022-08-26T09:27:37.920Z,93047.97
2022-08-26T09:30:11.525Z,93043.63
2022-08-26T09:32:40.672Z,93041.47
2022-08-26T09:35:11.090Z,93038.88
2022-08-26T09:40:27.110Z,93029.00
2022-08-26T09:43:23.201Z,93029.91
2022-08-26T09:46:10.342Z,93037.75
2022-08-26T09:51:35.744Z,93032.94
2022-08-26T09:54:08.232Z,93032.69
2022-08-26T09:56:39.197Z,93031.66
2022-08-26T09:59:11.703Z,93031.06
2022-08-26T10:01:44.732Z,93028.13
2022-08-26T10:04:26.773Z,93021.22
2022-08-26T10:07:07.414Z,93034.13
2022-08-26T10:09:40.921Z,93037.22
2022-08-26T10:12:15.521Z,93038.12
2022-08-26T10:14:57.964Z,93032.28
2022-08-26T10:17:32.389Z,93031.53
2022-08-26T10:20:23.543Z,93038.34
2022-08-26T10:23:00.635Z,93030.12
2022-08-26T10:25:45.021Z,93033.78
2022-08-26T10:28:31.531Z,93025.22
2022-08-26T10:31:12.997Z,93023.69
2022-08-26T10:33:40.511Z,93029.06
2022-08-26T10:36:39.330Z,93026.69
2022-08-26T10:39:24.616Z,93027.72
2022-08-26T10:41:56.833Z,93023.34
2022-08-26T10:44:25.813Z,93021.38
2022-08-26T10:47:03.812Z,93021.50
2022-08-26T10:49:32.588Z,93014.28
2022-08-26T10:52:29.437Z,93011.22
2022-08-26T10:55:05.553Z,93010.28
2022-08-26T10:57:57.603Z,93010.03
2022-08-26T11:00:53.621Z,93016.22
2022-08-26T11:03:35.907Z,93014.44
2022-08-26T11:06:37.090Z,93015.53
2022-08-26T11:09:09.216Z,93009.88
2022-08-26T11:11:46.900Z,92997.13
2022-08-26T11:14:29.041Z,93013.13
2022-08-26T11:16:58.927Z,93014.97
2022-08-26T11:19:58.962Z,93008.09
2022-08-26T11:22:32.819Z,93000.41
2022-08-26T11:25:06.833Z,93001.28
2022-08-26T11:27:37.515Z,93008.78
2022-08-26T11:30:27.931Z,93001.59
2022-08-26T11:32:59.040Z,92999.13
2022-08-26T11:35:34.905Z,93013.78
2022-08-26T11:38:28.713Z,93003.28
2022-08-26T11:41:10.845Z,93009.50
2022-08-26T11:43:40.839Z,93000.09
2022-08-26T11:46:12.277Z,93018.69
2022-08-26T11:48:42.564Z,93002.44
2022-08-26T11:51:16.362Z,93007.22
2022-08-26T11:53:47.231Z,93002.88
2022-08-26T11:56:28.861Z,93006.22
2022-08-26T11:59:03.239Z,93002.13
2022-08-26T12:01:35.781Z,93013.06
2022-08-26T12:04:10.913Z,93009.81
2022-08-26T12:06:53.336Z,93000.62
2022-08-26T12:09:26.048Z,93001.44
2022-08-26T12:11:58.030Z,92994.41
2022-08-26T12:14:27.654Z,92999.59
2022-08-26T12:16:55.270Z,92983.66
2022-08-26T12:19:25.253Z,92980.72
2022-08-26T12:22:48.192Z,92977.25
2022-08-26T12:25:24.269Z,92976.22
2022-08-26T12:27:54.002Z,92971.44
2022-08-26T12:30:24.741Z,92977.75
2022-08-26T12:33:22.810Z,92966.34
2022-08-26T12:35:56.275Z,92968.59
2022-08-26T12:38:27.657Z,92966.03
2022-08-26T12:40:57.072Z,92968.78
2022-08-26T12:43:46.054Z,92969.41
2022-08-26T12:46:18.310Z,92969.81
2022-08-26T12:48:49.217Z,92968.06
2022-08-26T12:51:27.473Z,92959.41
2022-08-26T12:53:56.078Z,92955.16
2022-08-26T12:56:27.783Z,92958.44
2022-08-26T12:59:22.417Z,92966.13
2022-08-26T13:01:52.730Z,92964.13
2022-08-26T13:04:36.829Z,92966.19
2022-08-26T13:07:26.989Z,92963.03
2022-08-26T13:10:01.629Z,92956.31
2022-08-26T13:12:34.573Z,92958.81
2022-08-26T13:15:04.504Z,92956.00
2022-08-26T13:17:32.322Z,92950.31
2022-08-26T13:20:04.063Z,92953.25
2022-08-26T13:22:32.497Z,92959.13
2022-08-26T13:24:59.910Z,92952.31
2022-08-26T13:27:28.129Z,92940.00
2022-08-26T13:29:57.559Z,92938.78
2022-08-26T13:32:27.465Z,92940.47
2022-08-26T13:34:57.662Z,92939.25
2022-08-26T13:37:35.003Z,92936.34
2022-08-26T13:40:06.453Z,92942.28
2022-08-26T13:42:34.533Z,92939.06
2022-08-26T13:45:02.474Z,92938.69
2022-08-26T13:47:32.745Z,92940.16
2022-08-26T13:50:00.177Z,92935.53
2022-08-26T13:52:30.242Z,92935.28
2022-08-26T13:55:01.729Z,92937.28
2022-08-26T13:57:30.647Z,92933.53
2022-08-26T13:59:59.580Z,92940.91
2022-08-26T14:02:28.273Z,92934.63
2022-08-26T14:04:56.152Z,92937.28
2022-08-26T14:07:23.962Z,92939.62
2022-08-26T14:09:51.438Z,92946.97
2022-08-26T14:12:19.504Z,92938.13
2022-08-26T14:14:46.962Z,92934.31
2022-08-26T14:17:19.462Z,92941.69
2022-08-26T14:19:49.143Z,92944.63
2022-08-26T14:22:18.844Z,92940.91
2022-08-26T14:24:46.708Z,92939.53
2022-08-26T14:27:14.983Z,92936.50
2022-08-26T14:29:43.370Z,92933.69
2022-08-26T14:32:18.895Z,92940.84
2022-08-26T14:34:49.135Z,92943.09
2022-08-26T14:37:18.092Z,92945.09
2022-08-26T14:39:46.229Z,92944.03
2022-08-26T14:42:16.836Z,92946.78
2022-08-26T14:44:46.425Z,92941.47
2022-08-26T14:47:14.100Z,92945.69
2022-08-26T14:49:43.817Z,92935.53
2022-08-26T14:52:11.634Z,92936.75
2022-08-26T14:54:39.111Z,92937.94
2022-08-26T14:57:09.268Z,92931.03
2022-08-26T14:59:40.021Z,92932.56
2022-08-26T15:02:11.488Z,92928.69
2022-08-26T15:04:41.882Z,92934.50
2022-08-26T15:07:09.628Z,92930.09
2022-08-26T15:09:40.483Z,92934.38
2022-08-26T15:12:10.046Z,92934.13
2022-08-26T15:14:37.661Z,92935.66
2022-08-26T15:17:06.545Z,92944.13
2022-08-26T15:19:34.220Z,92938.75
2022-08-26T15:22:01.626Z,92932.41
2022-08-26T15:24:29.206Z,92944.72
2022-08-26T15:26:56.963Z,92938.00
2022-08-26T15:29:24.585Z,92942.91
2022-08-26T15:31:57.215Z,92939.59
2022-08-26T15:34:25.539Z,92942.44
2022-08-26T15:36:52.946Z,92937.50
2022-08-26T15:39:20.905Z,92938.94
2022-08-26T15:41:48.744Z,92934.41
2022-08-26T15:44:17.405Z,92936.88
2022-08-26T15:46:45.099Z,92929.13
2022-08-26T15:49:18.262Z,92930.34
2022-08-26T15:51:48.286Z,92933.88
2022-08-26T15:54:17.459Z,92931.53
2022-08-26T15:56:47.912Z,92927.78
2022-08-26T15:59:16.207Z,92928.94
2022-08-26T16:01:43.729Z,92931.78
2022-08-26T16:04:11.678Z,92930.69
2022-08-26T16:06:41.252Z,92930.81
2022-08-26T16:09:11.097Z,92931.22
2022-08-26T16:11:38.912Z,92934.84
2022-08-26T16:14:07.423Z,92932.94
2022-08-26T16:16:39.494Z,92931.00
2022-08-26T16:19:08.206Z,92934.09
2022-08-26T16:21:36.364Z,92930.13
2022-08-26T16:24:04.954Z,92930.34
2022-08-26T16:26:35.153Z,92934.00
2022-08-26T16:29:08.848Z,92932.56
2022-08-26T16:31:38.483Z,92937.22
2022-08-26T16:34:09.527Z,92933.00
2022-08-26T16:36:38.960Z,92940.81
2022-08-26T16:39:08.121Z,92947.06
2022-08-26T16:41:36.220Z,92952.75
2022-08-26T16:44:04.237Z,92946.72
2022-08-26T16:46:31.884Z,92950.53
2022-08-26T16:48:59.730Z,92955.38
2022-08-26T16:51:28.340Z,92952.69
2022-08-26T16:53:57.640Z,92956.41
2022-08-26T16:56:33.749Z,92959.91
2022-08-26T16:59:07.727Z,92953.09
2022-08-26T17:01:35.743Z,92956.47
2022-08-26T17:04:04.292Z,92958.69
2022-08-26T17:06:31.806Z,92951.72
2022-08-26T17:08:59.242Z,92958.87
2022-08-26T17:11:27.086Z,92957.75
2022-08-26T17:13:54.502Z,92955.72
2022-08-26T17:16:26.360Z,92957.19
2022-08-26T17:18:56.484Z,92961.06
2022-08-26T17:21:24.024Z,92955.78
2022-08-26T17:23:52.044Z,92963.38
2022-08-26T17:26:20.077Z,92965.34
2022-08-26T17:28:47.531Z,92968.47
2022-08-26T17:31:15.010Z,92977.78
2022-08-26T17:33:42.834Z,92975.56
2022-08-26T17:36:10.819Z,92981.19
2022-08-26T17:38:38.814Z,92977.00
2022-08-26T17:41:11.018Z,92983.03
2022-08-26T17:43:39.262Z,92983.59
2022-08-26T17:46:09.570Z,92992.19
2022-08-26T17:48:38.300Z,92983.75
2022-08-26T17:51:11.390Z,92999.25
2022-08-26T17:53:39.929Z,93006.03
2022-08-26T17:56:13.139Z,93008.00
2022-08-26T17:58:41.291Z,93001.66
2022-08-26T18:01:18.963Z,93011.34
2022-08-26T18:03:46.721Z,93009.66
2022-08-26T18:06:14.719Z,93007.22
2022-08-26T18:08:42.611Z,93014.25
2022-08-26T18:11:12.868Z,93016.78
2022-08-26T18:13:47.635Z,93018.25
2022-08-26T18:16:17.720Z,93015.31
2022-08-26T18:18:46.735Z,93014.38
2022-08-26T18:21:18.038Z,93019.87
2022-08-26T18:23:47.052Z,93018.91
2022-08-26T18:26:19.701Z,93023.78
2022-08-26T18:28:47.687Z,93030.66
2022-08-26T18:31:15.628Z,93027.97
2022-08-26T18:33:43.395Z,93029.38
2022-08-26T18:36:26.795Z,93028.59
2022-08-26T18:38:54.783Z,93034.69
2022-08-26T18:41:24.591Z,93034.22
2022-08-26T18:43:53.380Z,93039.25
2022-08-26T18:46:25.169Z,93044.81
2022-08-26T18:48:55.161Z,93046.41
2022-08-26T18:51:24.193Z,93048.00
2022-08-26T18:53:52.881Z,93058.50
2022-08-26T18:56:20.745Z,93056.13
2022-08-26T18:58:49.024Z,93051.84
2022-08-26T19:01:17.897Z,93049.75
2022-08-26T19:03:46.944Z,93060.66
2022-08-26T19:06:17.337Z,93059.00
2022-08-26T19:08:45.385Z,93069.72
2022-08-26T19:11:31.439Z,93065.50
2022-08-26T19:14:02.332Z,93065.84
2022-08-26T19:16:31.244Z,93068.03
2022-08-26T19:18:59.130Z,93064.00
2022-08-26T19:21:26.776Z,93058.63
2022-08-26T19:24:00.088Z,93060.44
2022-08-26T19:26:28.813Z,93070.06
2022-08-26T19:28:57.270Z,93065.34
2022-08-26T19:31:25.141Z,93068.19
2022-08-26T19:33:53.061Z,93072.91
2022-08-26T19:36:24.216Z,93069.41
2022-08-26T19:38:53.088Z,93073.59
2022-08-26T19:41:36.659Z,93073.81
2022-08-26T19:44:34.468Z,93071.66
2022-08-26T19:47:03.845Z,93080.09
2022-08-26T19:49:31.697Z,93075.97
2022-08-26T19:51:59.241Z,93071.47
2022-08-26T19:54:27.327Z,93074.94
2022-08-26T19:56:54.788Z,93078.53
2022-08-26T19:59:22.379Z,93083.34
2022-08-26T20:01:52.974Z,93082.72
2022-08-26T20:04:31.633Z,93078.59
2022-08-26T20:07:01.025Z,93086.63
2022-08-26T20:09:30.449Z,93081.22
2022-08-26T20:11:58.865Z,93079.66
2022-08-26T20:14:27.320Z,93077.09
2022-08-26T20:16:54.724Z,93082.66
2022-08-26T20:19:42.189Z,93085.25
2022-08-26T20:22:09.771Z,93083.88
2022-08-26T20:24:37.479Z,93088.69
2022-08-26T20:27:08.002Z,93080.03
2022-08-26T20:29:37.236Z,93090.13
2022-08-26T20:32:08.054Z,93083.81
2022-08-26T20:34:36.749Z,93086.38
2022-08-26T20:37:05.923Z,93089.81
2022-08-26T20:39:36.531Z,93085.19
2022-08-26T20:42:04.584Z,93084.53
2022-08-26T20:44:33.402Z,93090.19
2022-08-26T20:47:01.224Z,93085.00
2022-08-26T20:49:30.509Z,93092.38
2022-08-26T20:52:02.708Z,93093.94
2022-08-26T20:54:30.581Z,93092.94
2022-08-26T20:56:58.885Z,93092.41
2022-08-26T20:59:27.287Z,93096.84
2022-08-26T21:01:55.298Z,93101.94
2022-08-26T21:04:25.271Z,93097.28
2022-08-26T21:06:54.634Z,93106.28
2022-08-26T21:09:22.850Z,93100.00
2022-08-26T21:11:51.070Z,93097.03
2022-08-26T21:14:20.736Z,93096.41
2022-08-26T21:16:48.253Z,93095.69
2022-08-26T21:19:18.199Z,93097.78
2022-08-26T21:21:47.905Z,93102.78
2022-08-26T21:24:15.846Z,93103.56
2022-08-26T21:26:43.632Z,93105.50
2022-08-26T21:29:13.655Z,93100.78
2022-08-26T21:31:46.127Z,93100.72
2022-08-26T21:34:17.434Z,93107.12
2022-08-26T21:36:46.208Z,93106.06
2022-08-26T21:39:14.460Z,93103.28
2022-08-26T21:41:43.482Z,93102.13
2022-08-26T21:44:12.998Z,93104.44
2022-08-26T21:46:41.076Z,93108.44
2022-08-26T21:49:12.443Z,93108.28
2022-08-26T21:51:43.833Z,93113.22
2022-08-26T21:54:12.841Z,93105.28
2022-08-26T21:56:44.764Z,93107.62
2022-08-26T21:59:13.657Z,93112.69
2022-08-26T22:01:41.549Z,93113.97
2022-08-26T22:04:10.429Z,93110.87
2022-08-26T22:06:48.311Z,93112.84
2022-08-26T22:09:20.211Z,93102.81
2022-08-26T22:11:47.803Z,93108.59
2022-08-26T22:14:16.779Z,93109.22
2022-08-26T22:16:50.110Z,93107.06
2022-08-26T22:19:20.218Z,93106.53
2022-08-26T22:21:50.889Z,93107.31
2022-08-26T22:24:19.895Z,93102.66
2022-08-26T22:26:48.659Z,93102.25
2022-08-26T22:29:16.345Z,93108.41
2022-08-26T22:31:43.875Z,93106.13
2022-08-26T22:34:15.780Z,93108.78
2022-08-26T22:36:48.466Z,93110.22
2022-08-26T22:39:20.455Z,93109.00
2022-08-26T22:41:48.928Z,93105.13
2022-08-26T22:44:18.211Z,93105.22
2022-08-26T22:46:45.994Z,93104.91
2022-08-26T22:49:18.221Z,93105.78
2022-08-26T22:51:46.883Z,93108.31
2022-08-26T22:54:15.462Z,93101.09
2022-08-26T22:56:44.798Z,93110.84
2022-08-26T22:59:13.534Z,93109.78
2022-08-26T23:01:43.163Z,93113.59
2022-08-26T23:04:11.880Z,93111.53
2022-08-26T23:06:41.976Z,93112.38
2022-08-26T23:09:10.712Z,93109.97
2022-08-26T23:11:42.150Z,93105.19
2022-08-26T23:14:11.352Z,93114.81
2022-08-26T23:16:43.392Z,93104.41
2022-08-26T23:19:13.731Z,93105.94
2022-08-26T23:21:41.514Z,93105.84
2022-08-26T23:24:09.698Z,93105.66
2022-08-26T23:26:38.728Z,93108.81
2022-08-26T23:29:08.572Z,93109.97
2022-08-26T23:31:38.165Z,93109.16
2022-08-26T23:34:24.890Z,93108.34
2022-08-26T23:36:52.933Z,93107.56
2022-08-26T23:39:25.693Z,93113.34
2022-08-26T23:41:53.173Z,93110.16
2022-08-26T23:44:20.927Z,93114.28
2022-08-26T23:46:48.780Z,93113.78
2022-08-26T23:49:16.132Z,93114.97
2022-08-26T23:52:02.156Z,93114.09
2022-08-26T23:54:29.869Z,93112.56
2022-08-26T23:56:57.343Z,93108.59
2022-08-26T23:59:25.208Z,93111.53
